Flight Track Log - Related Links

Times and Time Zones

All times are in EDT time to prevent confusion due to time zone crossing. See the KAP169 flight status page for this flight to view local times or setup timezone preferences in your user account.

Time Position Orientation Groundspeed Altitude Reporting Facility
EDT Latitude Longitude Course Direction KTS MPH feet Rate Location/Type
Sat 03:56:00 PM 43.9590 -69.3198 227° Southwest  Level FlightAware Approximate
Sat 03:57:00 PM 43.9437 -69.3584 251° West  Level FlightAware Approximate
Sat 03:58:00 PM 43.9329 -69.4007 227° Southwest  Level FlightAware Approximate
Sat 03:59:00 PM 43.9109 -69.4337 227° Southwest  Level FlightAware Approximate
Sat 04:00:00 PM 43.8919 -69.4697 240° Southwest  Level FlightAware Approximate
Sat 04:01:00 PM 43.8758 -69.5087 240° Southwest  Level FlightAware Approximate
Sat 04:02:00 PM 43.8597 -69.5477 240° Southwest  Level FlightAware Approximate
Sat 04:03:00 PM 43.8436 -69.5867 240° Southwest  Level FlightAware Approximate
Sat 04:04:00 PM 43.8274 -69.6256 240° Southwest  Level FlightAware Approximate
Sat 04:05:00 PM 43.8113 -69.6645 240° Southwest  Level FlightAware Approximate
Sat 04:06:00 PM 43.7952 -69.7034 240° Southwest  Level FlightAware Approximate
Sat 04:07:00 PM 43.7790 -69.7423 240° Southwest  Level FlightAware Approximate
Sat 04:08:00 PM 43.7628 -69.7811 240° Southwest  Level FlightAware Approximate
Sat 04:09:00 PM 43.7466 -69.8200 240° Southwest  Level FlightAware Approximate
Sat 04:10:00 PM 43.7304 -69.8588 240° Southwest  Level FlightAware Approximate
Sat 04:11:00 PM 43.7142 -69.8976 240° Southwest  Level FlightAware Approximate
Sat 04:12:00 PM 43.6979 -69.9363 240° Southwest  Level FlightAware Approximate
Sat 04:13:00 PM 43.6817 -69.9751 240° Southwest  Level FlightAware Approximate
Sat 04:14:00 PM 43.6655 -70.0138 240° Southwest  Level FlightAware Approximate
Sat 04:15:00 PM 43.6492 -70.0525 240° Southwest  Level FlightAware Approximate
Sat 04:16:00 PM 43.6329 -70.0912 240° Southwest  Level FlightAware Approximate
Sat 04:17:00 PM 43.6166 -70.1298 240° Southwest  Level FlightAware Approximate
Sat 04:18:00 PM 43.6003 -70.1685 240° Southwest  Level FlightAware Approximate
Sat 04:19:00 PM 43.5840 -70.2071 240° Southwest  Level FlightAware Approximate
Sat 04:19:42 PM 43.3500 -70.1333 240° Southwest 133 153 6,000  Level KA90
Sat 04:20:00 PM 43.5676 -70.2457 240° Southwest  Level FlightAware Approximate
Sat 04:20:33 PM 43.3167 -70.1667 216° Southwest 133 153 6,000  Level KA90
Sat 04:21:00 PM 43.5513 -70.2843 240° Southwest  Level FlightAware Approximate
Sat 04:21:32 PM 43.3000 -70.2167 245° Southwest 133 153 6,000  Level KA90
Sat 04:22:00 PM 43.5349 -70.3228 240° Southwest  Level FlightAware Approximate
Sat 04:22:33 PM 43.2833 -70.2500 236° Southwest 132 152 6,000  Level KA90
Sat 04:23:00 PM 43.5186 -70.3614 240° Southwest  Level FlightAware Approximate
Sat 04:23:33 PM 43.2500 -70.2833 216° Southwest 131 151 6,000  Level KA90
Sat 04:24:00 PM 43.5022 -70.3999 240° Southwest  Level FlightAware Approximate
Sat 04:24:33 PM 43.2333 -70.3333 245° Southwest 132 152 6,000  Level KA90
Sat 04:25:00 PM 43.4858 -70.4384 240° Southwest  Level FlightAware Approximate
Sat 04:25:30 PM 43.2000 -70.3667 216° Southwest 132 152 6,000  Level KA90
Sat 04:26:33 PM 43.1833 -70.4000 236° Southwest 133 153 6,000  Level KA90
Sat 04:27:30 PM 43.1500 -70.4333 216° Southwest 134 154 6,000  Level KA90
Sat 04:28:30 PM 43.1333 -70.4833 245° Southwest 133 153 6,000  Level KA90
Sat 04:29:33 PM 43.1000 -70.5000 200° South 140 161 6,000  Level KA90
Sat 04:30:33 PM 43.0500 -70.5167 194° South 137 158 6,000  Level KA90
Sat 04:31:30 PM 43.0167 -70.5333 200° South 138 159 6,000  Level KA90
Sat 04:32:33 PM 42.9833 -70.5667 216° Southwest 137 158 6,000  Level KA90
Sat 04:33:33 PM 42.9500 -70.5833 200° South 137 158 6,000  Level KA90
Sat 04:34:33 PM 42.9167 -70.6167 216° Southwest 137 158 6,000  Level KA90
Sat 04:35:36 PM 42.8833 -70.6333 200° South 137 158 6,000 -48 Level KA90
Sat 04:36:38 PM 42.8500 -70.6667 216° Southwest 135 155 5,900 -350 Descending KA90
Sat 04:37:36 PM 42.8167 -70.6833 200° South 151 174 5,300 -574 Descending KA90
Sat 04:38:33 PM 42.8000 -70.7333 246° West 149 171 4,800 -564 Descending KA90
Sat 04:39:33 PM 42.7667 -70.7833 228° Southwest 148 170 4,200 -400 Descending KA90
Sat 04:40:33 PM 42.7500 -70.8167 236° Southwest 141 162 4,000 -102 Descending KA90
Sat 04:41:31 PM 42.7167 -70.8333 200° South 137 158 4,000  Level KA90
Sat 04:42:27 PM 42.6833 -70.8500 200° South 131 151 4,000 -50 Level KA90
Sat 04:43:30 PM 42.6500 -70.8667 200° South 130 150 3,900  Descending KA90
Sat 04:44:27 PM 42.6167 -70.8833 200° South 131 151 4,000 51 Climbing KA90
Sat 04:45:27 PM 42.5833 -70.9000 200° South 128 147 4,000 -153 Level KA90
Sat 04:46:25 PM 42.5500 -70.9167 200° South 126 145 3,700 -619 Descending KA90
Sat 04:47:33 PM 42.5000 -70.9333 194° South 137 158 2,700 -797 Descending KA90
Sat 04:48:33 PM 42.4667 -70.9500 200° South 143 165 2,000 -800 Descending KA90
Sat 04:49:33 PM 42.4333 -70.9667 200° South 144 166 1,100 -683 Descending KA90
Sat 04:50:36 PM 42.4000 -70.9833 200° South 111 128 600 -476 Descending KA90
Sat 04:52:00 PM 42.3630 -71.0064 172° South  Level Estimated
Sat 04:59:00 PM 42.3630 -71.0064 172° South  Level Estimated

Login

Don't have an account? Register now (free) for customized features, flight alerts, and more!